sensor_id;sensor_type;location;lat;lon;timestamp;P1;durP1;ratioP1;P2;durP2;ratioP2
5014;SDS011;2526;51.060;4.228;2023-05-10T00:00:09;10.20;;;4.85;;
5014;SDS011;2526;51.060;4.228;2023-05-10T00:02:35;8.02;;;4.05;;
5014;SDS011;2526;51.060;4.228;2023-05-10T00:05:01;6.93;;;4.05;;
5014;SDS011;2526;51.060;4.228;2023-05-10T00:07:26;9.38;;;3.58;;
5014;SDS011;2526;51.060;4.228;2023-05-10T00:09:52;6.80;;;4.47;;
5014;SDS011;2526;51.060;4.228;2023-05-10T00:12:17;9.27;;;3.55;;
5014;SDS011;2526;51.060;4.228;2023-05-10T00:14:43;10.45;;;4.25;;
5014;SDS011;2526;51.060;4.228;2023-05-10T00:17:08;11.05;;;4.13;;
5014;SDS011;2526;51.060;4.228;2023-05-10T00:19:33;13.13;;;5.82;;
5014;SDS011;2526;51.060;4.228;2023-05-10T00:21:59;8.13;;;3.92;;
5014;SDS011;2526;51.060;4.228;2023-05-10T00:24:25;9.30;;;4.03;;
5014;SDS011;2526;51.060;4.228;2023-05-10T00:26:50;8.43;;;3.45;;
5014;SDS011;2526;51.060;4.228;2023-05-10T00:29:16;9.63;;;3.03;;
5014;SDS011;2526;51.060;4.228;2023-05-10T00:31:41;4.05;;;3.13;;
5014;SDS011;2526;51.060;4.228;2023-05-10T00:34:07;7.65;;;3.83;;
5014;SDS011;2526;51.060;4.228;2023-05-10T00:36:32;9.60;;;4.82;;
5014;SDS011;2526;51.060;4.228;2023-05-10T00:38:58;11.82;;;5.30;;
5014;SDS011;2526;51.060;4.228;2023-05-10T00:41:23;13.95;;;5.03;;
5014;SDS011;2526;51.060;4.228;2023-05-10T00:43:49;11.60;;;5.45;;
5014;SDS011;2526;51.060;4.228;2023-05-10T00:46:14;10.40;;;5.22;;
5014;SDS011;2526;51.060;4.228;2023-05-10T00:48:40;14.15;;;6.85;;
5014;SDS011;2526;51.060;4.228;2023-05-10T00:51:06;10.43;;;5.68;;
5014;SDS011;2526;51.060;4.228;2023-05-10T00:53:31;15.13;;;8.07;;
5014;SDS011;2526;51.060;4.228;2023-05-10T00:55:58;9.88;;;4.78;;
5014;SDS011;2526;51.060;4.228;2023-05-10T00:58:24;13.77;;;6.88;;
5014;SDS011;2526;51.060;4.228;2023-05-10T01:00:53;10.50;;;4.82;;
5014;SDS011;2526;51.060;4.228;2023-05-10T01:03:19;9.18;;;5.00;;
5014;SDS011;2526;51.060;4.228;2023-05-10T01:05:45;11.20;;;5.95;;
5014;SDS011;2526;51.060;4.228;2023-05-10T01:08:11;10.20;;;5.80;;
5014;SDS011;2526;51.060;4.228;2023-05-10T01:10:36;11.05;;;6.25;;
5014;SDS011;2526;51.060;4.228;2023-05-10T01:13:01;15.65;;;6.88;;
5014;SDS011;2526;51.060;4.228;2023-05-10T01:15:28;10.80;;;6.85;;
5014;SDS011;2526;51.060;4.228;2023-05-10T01:17:54;11.80;;;7.13;;
5014;SDS011;2526;51.060;4.228;2023-05-10T01:20:20;13.23;;;6.72;;
5014;SDS011;2526;51.060;4.228;2023-05-10T01:28:32;13.02;;;6.57;;
5014;SDS011;2526;51.060;4.228;2023-05-10T01:34:01;11.38;;;6.60;;
5014;SDS011;2526;51.060;4.228;2023-05-10T01:36:30;18.30;;;7.10;;
5014;SDS011;2526;51.060;4.228;2023-05-10T01:41:43;11.90;;;6.78;;
5014;SDS011;2526;51.060;4.228;2023-05-10T01:44:31;13.30;;;6.68;;
5014;SDS011;2526;51.060;4.228;2023-05-10T01:47:04;11.65;;;6.78;;
5014;SDS011;2526;51.060;4.228;2023-05-10T01:49:32;15.18;;;7.20;;
5014;SDS011;2526;51.060;4.228;2023-05-10T01:52:00;15.50;;;8.15;;
5014;SDS011;2526;51.060;4.228;2023-05-10T01:54:26;18.25;;;10.25;;
5014;SDS011;2526;51.060;4.228;2023-05-10T01:56:55;18.85;;;8.77;;
5014;SDS011;2526;51.060;4.228;2023-05-10T01:59:21;15.90;;;8.55;;
5014;SDS011;2526;51.060;4.228;2023-05-10T02:01:47;20.30;;;7.35;;
5014;SDS011;2526;51.060;4.228;2023-05-10T02:04:15;18.92;;;10.20;;
5014;SDS011;2526;51.060;4.228;2023-05-10T02:06:40;16.42;;;8.95;;
5014;SDS011;2526;51.060;4.228;2023-05-10T02:09:07;20.67;;;10.43;;
5014;SDS011;2526;51.060;4.228;2023-05-10T02:11:34;18.98;;;9.93;;
5014;SDS011;2526;51.060;4.228;2023-05-10T02:13:59;17.70;;;11.18;;
5014;SDS011;2526;51.060;4.228;2023-05-10T02:16:26;15.55;;;9.73;;
5014;SDS011;2526;51.060;4.228;2023-05-10T02:18:51;27.77;;;10.38;;
5014;SDS011;2526;51.060;4.228;2023-05-10T02:21:18;17.55;;;9.57;;
5014;SDS011;2526;51.060;4.228;2023-05-10T02:23:44;21.88;;;11.48;;
5014;SDS011;2526;51.060;4.228;2023-05-10T02:26:10;20.00;;;10.20;;
5014;SDS011;2526;51.060;4.228;2023-05-10T02:28:37;18.80;;;11.27;;
5014;SDS011;2526;51.060;4.228;2023-05-10T02:31:03;17.45;;;10.23;;
5014;SDS011;2526;51.060;4.228;2023-05-10T02:33:28;22.33;;;12.15;;
5014;SDS011;2526;51.060;4.228;2023-05-10T02:35:55;26.75;;;12.68;;
5014;SDS011;2526;51.060;4.228;2023-05-10T02:38:20;21.40;;;13.23;;
5014;SDS011;2526;51.060;4.228;2023-05-10T02:40:47;21.40;;;10.02;;
5014;SDS011;2526;51.060;4.228;2023-05-10T02:43:14;16.90;;;11.52;;
5014;SDS011;2526;51.060;4.228;2023-05-10T02:45:40;15.38;;;11.07;;
5014;SDS011;2526;51.060;4.228;2023-05-10T02:48:06;19.35;;;10.77;;
5014;SDS011;2526;51.060;4.228;2023-05-10T02:50:32;22.35;;;11.25;;
5014;SDS011;2526;51.060;4.228;2023-05-10T02:53:01;25.70;;;11.40;;
5014;SDS011;2526;51.060;4.228;2023-05-10T02:55:31;17.42;;;10.45;;
5014;SDS011;2526;51.060;4.228;2023-05-10T02:57:58;25.42;;;12.98;;
5014;SDS011;2526;51.060;4.228;2023-05-10T03:00:24;33.55;;;13.48;;
5014;SDS011;2526;51.060;4.228;2023-05-10T03:02:50;21.67;;;10.85;;
5014;SDS011;2526;51.060;4.228;2023-05-10T03:05:15;16.85;;;11.90;;
5014;SDS011;2526;51.060;4.228;2023-05-10T03:07:41;23.88;;;12.85;;
5014;SDS011;2526;51.060;4.228;2023-05-10T03:10:06;20.02;;;11.77;;
5014;SDS011;2526;51.060;4.228;2023-05-10T03:20:10;24.13;;;12.38;;
5014;SDS011;2526;51.060;4.228;2023-05-10T03:22:46;24.38;;;13.05;;
5014;SDS011;2526;51.060;4.228;2023-05-10T03:25:12;28.48;;;14.27;;
5014;SDS011;2526;51.060;4.228;2023-05-10T03:27:41;24.80;;;13.60;;
5014;SDS011;2526;51.060;4.228;2023-05-10T03:30:08;19.38;;;12.20;;
5014;SDS011;2526;51.060;4.228;2023-05-10T03:32:35;24.98;;;14.45;;
5014;SDS011;2526;51.060;4.228;2023-05-10T03:35:05;27.67;;;14.60;;
5014;SDS011;2526;51.060;4.228;2023-05-10T03:37:31;29.25;;;13.85;;
5014;SDS011;2526;51.060;4.228;2023-05-10T03:39:56;24.30;;;14.20;;
5014;SDS011;2526;51.060;4.228;2023-05-10T03:42:22;25.55;;;13.50;;
5014;SDS011;2526;51.060;4.228;2023-05-10T03:44:47;25.63;;;12.30;;
5014;SDS011;2526;51.060;4.228;2023-05-10T03:47:14;29.65;;;13.15;;
5014;SDS011;2526;51.060;4.228;2023-05-10T03:49:39;25.48;;;13.65;;
5014;SDS011;2526;51.060;4.228;2023-05-10T03:52:05;29.67;;;15.32;;
5014;SDS011;2526;51.060;4.228;2023-05-10T03:54:31;25.35;;;15.95;;
5014;SDS011;2526;51.060;4.228;2023-05-10T03:56:57;26.73;;;16.00;;
5014;SDS011;2526;51.060;4.228;2023-05-10T03:59:22;30.98;;;15.40;;
5014;SDS011;2526;51.060;4.228;2023-05-10T04:01:48;27.08;;;14.65;;
5014;SDS011;2526;51.060;4.228;2023-05-10T04:04:13;29.17;;;13.50;;
5014;SDS011;2526;51.060;4.228;2023-05-10T04:06:39;21.23;;;13.73;;
5014;SDS011;2526;51.060;4.228;2023-05-10T04:09:04;26.73;;;11.73;;
5014;SDS011;2526;51.060;4.228;2023-05-10T04:11:30;25.38;;;15.63;;
5014;SDS011;2526;51.060;4.228;2023-05-10T04:13:55;27.48;;;15.15;;
5014;SDS011;2526;51.060;4.228;2023-05-10T04:16:20;36.33;;;15.85;;
5014;SDS011;2526;51.060;4.228;2023-05-10T04:18:46;25.58;;;13.18;;
5014;SDS011;2526;51.060;4.228;2023-05-10T04:21:12;37.55;;;16.15;;
5014;SDS011;2526;51.060;4.228;2023-05-10T04:23:38;28.05;;;13.05;;
5014;SDS011;2526;51.060;4.228;2023-05-10T04:26:04;29.55;;;15.40;;
5014;SDS011;2526;51.060;4.228;2023-05-10T04:28:29;23.00;;;14.52;;
5014;SDS011;2526;51.060;4.228;2023-05-10T04:31:07;32.92;;;15.63;;
5014;SDS011;2526;51.060;4.228;2023-05-10T04:33:33;26.98;;;14.48;;
5014;SDS011;2526;51.060;4.228;2023-05-10T04:35:59;26.00;;;15.35;;
5014;SDS011;2526;51.060;4.228;2023-05-10T04:38:25;23.73;;;15.38;;
5014;SDS011;2526;51.060;4.228;2023-05-10T04:40:50;28.15;;;15.93;;
5014;SDS011;2526;51.060;4.228;2023-05-10T04:43:16;25.95;;;14.35;;
5014;SDS011;2526;51.060;4.228;2023-05-10T04:45:41;23.83;;;13.05;;
5014;SDS011;2526;51.060;4.228;2023-05-10T04:48:07;27.05;;;14.30;;
5014;SDS011;2526;51.060;4.228;2023-05-10T04:50:32;28.40;;;15.65;;
5014;SDS011;2526;51.060;4.228;2023-05-10T04:52:58;22.02;;;12.73;;
5014;SDS011;2526;51.060;4.228;2023-05-10T04:55:23;23.48;;;12.45;;
5014;SDS011;2526;51.060;4.228;2023-05-10T04:57:50;24.27;;;15.18;;
5014;SDS011;2526;51.060;4.228;2023-05-10T05:00:15;22.17;;;12.73;;
5014;SDS011;2526;51.060;4.228;2023-05-10T05:02:42;25.17;;;15.13;;
5014;SDS011;2526;51.060;4.228;2023-05-10T05:05:07;26.90;;;15.30;;
5014;SDS011;2526;51.060;4.228;2023-05-10T05:07:33;28.98;;;16.35;;
5014;SDS011;2526;51.060;4.228;2023-05-10T05:09:58;27.27;;;14.82;;
5014;SDS011;2526;51.060;4.228;2023-05-10T05:12:24;22.70;;;12.95;;
5014;SDS011;2526;51.060;4.228;2023-05-10T05:14:49;23.35;;;16.02;;
5014;SDS011;2526;51.060;4.228;2023-05-10T05:17:15;29.83;;;16.50;;
5014;SDS011;2526;51.060;4.228;2023-05-10T05:19:40;25.08;;;14.40;;
5014;SDS011;2526;51.060;4.228;2023-05-10T05:22:06;32.33;;;17.88;;
5014;SDS011;2526;51.060;4.228;2023-05-10T05:24:34;36.28;;;17.30;;
5014;SDS011;2526;51.060;4.228;2023-05-10T05:27:00;27.52;;;16.45;;
5014;SDS011;2526;51.060;4.228;2023-05-10T05:29:26;25.65;;;14.23;;
5014;SDS011;2526;51.060;4.228;2023-05-10T05:31:51;33.33;;;17.63;;
5014;SDS011;2526;51.060;4.228;2023-05-10T05:34:17;26.33;;;16.30;;
5014;SDS011;2526;51.060;4.228;2023-05-10T05:36:42;23.90;;;14.23;;
5014;SDS011;2526;51.060;4.228;2023-05-10T05:39:08;27.30;;;15.68;;
5014;SDS011;2526;51.060;4.228;2023-05-10T05:41:33;33.17;;;13.35;;
5014;SDS011;2526;51.060;4.228;2023-05-10T05:43:58;24.27;;;14.55;;
5014;SDS011;2526;51.060;4.228;2023-05-10T05:46:24;26.05;;;13.77;;
5014;SDS011;2526;51.060;4.228;2023-05-10T05:48:49;27.80;;;15.07;;
5014;SDS011;2526;51.060;4.228;2023-05-10T05:51:15;22.77;;;14.20;;
5014;SDS011;2526;51.060;4.228;2023-05-10T05:53:40;25.27;;;12.82;;
5014;SDS011;2526;51.060;4.228;2023-05-10T05:56:06;23.17;;;14.52;;
5014;SDS011;2526;51.060;4.228;2023-05-10T05:58:33;22.20;;;14.30;;
5014;SDS011;2526;51.060;4.228;2023-05-10T06:00:58;28.58;;;15.80;;
5014;SDS011;2526;51.060;4.228;2023-05-10T06:03:24;28.17;;;13.73;;
5014;SDS011;2526;51.060;4.228;2023-05-10T06:05:49;27.63;;;14.68;;
5014;SDS011;2526;51.060;4.228;2023-05-10T06:08:15;20.50;;;13.25;;
5014;SDS011;2526;51.060;4.228;2023-05-10T06:10:40;27.02;;;17.17;;
5014;SDS011;2526;51.060;4.228;2023-05-10T06:13:06;23.73;;;15.77;;
5014;SDS011;2526;51.060;4.228;2023-05-10T06:15:31;21.88;;;11.65;;
5014;SDS011;2526;51.060;4.228;2023-05-10T06:17:59;30.67;;;13.23;;
5014;SDS011;2526;51.060;4.228;2023-05-10T06:20:24;18.90;;;11.02;;
5014;SDS011;2526;51.060;4.228;2023-05-10T06:22:50;26.15;;;14.68;;
5014;SDS011;2526;51.060;4.228;2023-05-10T06:25:15;23.70;;;13.18;;
5014;SDS011;2526;51.060;4.228;2023-05-10T06:27:43;28.48;;;14.68;;
5014;SDS011;2526;51.060;4.228;2023-05-10T06:30:08;26.80;;;15.13;;
5014;SDS011;2526;51.060;4.228;2023-05-10T06:32:34;22.70;;;14.10;;
5014;SDS011;2526;51.060;4.228;2023-05-10T06:34:59;23.80;;;14.10;;
5014;SDS011;2526;51.060;4.228;2023-05-10T06:37:25;21.38;;;11.80;;
5014;SDS011;2526;51.060;4.228;2023-05-10T06:39:50;22.73;;;15.35;;
5014;SDS011;2526;51.060;4.228;2023-05-10T06:42:16;19.88;;;14.10;;
5014;SDS011;2526;51.060;4.228;2023-05-10T06:44:41;29.42;;;14.77;;
5014;SDS011;2526;51.060;4.228;2023-05-10T06:47:07;27.90;;;15.23;;
5014;SDS011;2526;51.060;4.228;2023-05-10T06:49:32;24.48;;;14.50;;
5014;SDS011;2526;51.060;4.228;2023-05-10T06:51:58;23.52;;;14.02;;
5014;SDS011;2526;51.060;4.228;2023-05-10T06:54:23;21.65;;;14.02;;
5014;SDS011;2526;51.060;4.228;2023-05-10T06:56:49;25.17;;;16.13;;
5014;SDS011;2526;51.060;4.228;2023-05-10T06:59:14;28.55;;;16.77;;
5014;SDS011;2526;51.060;4.228;2023-05-10T07:01:41;22.67;;;12.55;;
5014;SDS011;2526;51.060;4.228;2023-05-10T07:04:07;26.25;;;14.48;;
5014;SDS011;2526;51.060;4.228;2023-05-10T07:06:32;28.40;;;15.50;;
5014;SDS011;2526;51.060;4.228;2023-05-10T07:08:58;30.23;;;16.02;;
5014;SDS011;2526;51.060;4.228;2023-05-10T07:11:24;29.70;;;18.00;;
5014;SDS011;2526;51.060;4.228;2023-05-10T07:13:49;25.17;;;16.35;;
5014;SDS011;2526;51.060;4.228;2023-05-10T07:16:15;26.50;;;15.55;;
5014;SDS011;2526;51.060;4.228;2023-05-10T07:18:40;31.80;;;16.90;;
5014;SDS011;2526;51.060;4.228;2023-05-10T07:21:06;29.05;;;15.25;;
5014;SDS011;2526;51.060;4.228;2023-05-10T07:23:31;28.02;;;15.15;;
5014;SDS011;2526;51.060;4.228;2023-05-10T07:25:57;23.58;;;13.57;;
5014;SDS011;2526;51.060;4.228;2023-05-10T07:28:22;31.85;;;15.63;;
5014;SDS011;2526;51.060;4.228;2023-05-10T07:30:48;30.02;;;15.15;;
5014;SDS011;2526;51.060;4.228;2023-05-10T07:33:14;26.42;;;14.82;;
5014;SDS011;2526;51.060;4.228;2023-05-10T07:35:40;28.98;;;15.30;;
5014;SDS011;2526;51.060;4.228;2023-05-10T07:38:05;26.65;;;15.40;;
5014;SDS011;2526;51.060;4.228;2023-05-10T07:40:31;17.60;;;12.23;;
5014;SDS011;2526;51.060;4.228;2023-05-10T07:42:56;29.15;;;13.88;;
5014;SDS011;2526;51.060;4.228;2023-05-10T07:45:22;27.02;;;15.75;;
5014;SDS011;2526;51.060;4.228;2023-05-10T07:47:48;26.35;;;18.27;;
5014;SDS011;2526;51.060;4.228;2023-05-10T07:50:14;32.80;;;14.93;;
5014;SDS011;2526;51.060;4.228;2023-05-10T07:52:39;26.75;;;12.13;;
5014;SDS011;2526;51.060;4.228;2023-05-10T07:55:05;21.92;;;14.18;;
5014;SDS011;2526;51.060;4.228;2023-05-10T07:57:33;25.85;;;16.65;;
5014;SDS011;2526;51.060;4.228;2023-05-10T07:59:58;32.70;;;15.63;;
5014;SDS011;2526;51.060;4.228;2023-05-10T08:02:24;23.38;;;13.90;;
5014;SDS011;2526;51.060;4.228;2023-05-10T08:04:49;21.35;;;14.20;;
5014;SDS011;2526;51.060;4.228;2023-05-10T08:07:15;23.77;;;11.73;;
5014;SDS011;2526;51.060;4.228;2023-05-10T08:09:40;21.52;;;13.27;;
5014;SDS011;2526;51.060;4.228;2023-05-10T08:12:06;28.52;;;13.15;;
5014;SDS011;2526;51.060;4.228;2023-05-10T08:14:31;22.48;;;12.70;;
5014;SDS011;2526;51.060;4.228;2023-05-10T08:16:57;25.88;;;11.77;;
5014;SDS011;2526;51.060;4.228;2023-05-10T08:19:22;32.33;;;13.57;;
5014;SDS011;2526;51.060;4.228;2023-05-10T08:21:48;19.50;;;10.68;;
5014;SDS011;2526;51.060;4.228;2023-05-10T08:24:13;24.15;;;13.00;;
5014;SDS011;2526;51.060;4.228;2023-05-10T08:26:39;18.90;;;11.43;;
5014;SDS011;2526;51.060;4.228;2023-05-10T08:29:04;20.25;;;11.10;;
5014;SDS011;2526;51.060;4.228;2023-05-10T08:31:30;21.10;;;11.82;;
5014;SDS011;2526;51.060;4.228;2023-05-10T08:33:55;16.73;;;10.68;;
5014;SDS011;2526;51.060;4.228;2023-05-10T08:36:21;20.70;;;10.35;;
5014;SDS011;2526;51.060;4.228;2023-05-10T08:38:52;23.33;;;10.98;;
5014;SDS011;2526;51.060;4.228;2023-05-10T08:41:19;17.83;;;10.73;;
5014;SDS011;2526;51.060;4.228;2023-05-10T08:43:46;24.50;;;12.93;;
5014;SDS011;2526;51.060;4.228;2023-05-10T08:46:13;37.35;;;14.73;;
5014;SDS011;2526;51.060;4.228;2023-05-10T08:48:40;21.15;;;12.75;;
5014;SDS011;2526;51.060;4.228;2023-05-10T08:51:06;28.08;;;12.20;;
5014;SDS011;2526;51.060;4.228;2023-05-10T08:53:33;19.80;;;13.60;;
5014;SDS011;2526;51.060;4.228;2023-05-10T08:56:01;22.50;;;14.02;;
5014;SDS011;2526;51.060;4.228;2023-05-10T08:58:27;20.63;;;11.35;;
5014;SDS011;2526;51.060;4.228;2023-05-10T09:00:52;25.13;;;11.52;;
5014;SDS011;2526;51.060;4.228;2023-05-10T09:03:18;23.58;;;11.88;;
5014;SDS011;2526;51.060;4.228;2023-05-10T09:05:44;15.73;;;9.98;;
5014;SDS011;2526;51.060;4.228;2023-05-10T09:08:10;21.35;;;10.43;;
5014;SDS011;2526;51.060;4.228;2023-05-10T09:10:36;14.55;;;8.27;;
5014;SDS011;2526;51.060;4.228;2023-05-10T09:13:02;14.63;;;8.23;;
5014;SDS011;2526;51.060;4.228;2023-05-10T09:15:27;17.75;;;9.05;;
5014;SDS011;2526;51.060;4.228;2023-05-10T09:17:53;12.13;;;7.28;;
5014;SDS011;2526;51.060;4.228;2023-05-10T09:20:19;19.55;;;6.75;;
5014;SDS011;2526;51.060;4.228;2023-05-10T09:22:46;12.55;;;8.20;;
5014;SDS011;2526;51.060;4.228;2023-05-10T09:25:12;11.18;;;5.63;;
5014;SDS011;2526;51.060;4.228;2023-05-10T09:27:39;20.80;;;7.70;;
5014;SDS011;2526;51.060;4.228;2023-05-10T09:30:04;15.15;;;7.35;;
5014;SDS011;2526;51.060;4.228;2023-05-10T09:32:40;11.13;;;6.75;;
5014;SDS011;2526;51.060;4.228;2023-05-10T09:35:06;16.50;;;7.22;;
5014;SDS011;2526;51.060;4.228;2023-05-10T09:37:32;21.10;;;8.02;;
5014;SDS011;2526;51.060;4.228;2023-05-10T09:39:57;15.38;;;7.15;;
5014;SDS011;2526;51.060;4.228;2023-05-10T09:42:23;14.27;;;6.15;;
5014;SDS011;2526;51.060;4.228;2023-05-10T09:44:48;12.50;;;7.90;;
5014;SDS011;2526;51.060;4.228;2023-05-10T09:47:17;15.57;;;7.90;;
5014;SDS011;2526;51.060;4.228;2023-05-10T09:49:43;21.05;;;7.97;;
5014;SDS011;2526;51.060;4.228;2023-05-10T09:52:09;11.55;;;6.43;;
5014;SDS011;2526;51.060;4.228;2023-05-10T09:54:34;10.93;;;6.63;;
5014;SDS011;2526;51.060;4.228;2023-05-10T09:57:00;11.85;;;7.47;;
5014;SDS011;2526;51.060;4.228;2023-05-10T09:59:26;19.20;;;7.22;;
5014;SDS011;2526;51.060;4.228;2023-05-10T10:01:53;14.52;;;7.78;;
5014;SDS011;2526;51.060;4.228;2023-05-10T10:04:20;15.48;;;7.00;;
5014;SDS011;2526;51.060;4.228;2023-05-10T10:06:46;14.45;;;8.32;;
5014;SDS011;2526;51.060;4.228;2023-05-10T10:09:12;15.63;;;9.43;;
5014;SDS011;2526;51.060;4.228;2023-05-10T10:11:39;17.15;;;7.93;;
5014;SDS011;2526;51.060;4.228;2023-05-10T10:14:05;14.52;;;7.70;;
5014;SDS011;2526;51.060;4.228;2023-05-10T10:16:30;20.25;;;6.45;;
5014;SDS011;2526;51.060;4.228;2023-05-10T10:18:57;14.95;;;8.10;;
5014;SDS011;2526;51.060;4.228;2023-05-10T10:21:22;13.82;;;7.80;;
5014;SDS011;2526;51.060;4.228;2023-05-10T10:23:48;13.90;;;8.98;;
5014;SDS011;2526;51.060;4.228;2023-05-10T10:26:14;11.45;;;7.90;;
5014;SDS011;2526;51.060;4.228;2023-05-10T10:28:45;15.63;;;6.72;;
5014;SDS011;2526;51.060;4.228;2023-05-10T10:31:17;11.88;;;7.13;;
5014;SDS011;2526;51.060;4.228;2023-05-10T10:36:20;13.07;;;7.00;;
5014;SDS011;2526;51.060;4.228;2023-05-10T10:41:26;9.27;;;6.53;;
5014;SDS011;2526;51.060;4.228;2023-05-10T10:46:57;14.05;;;7.10;;
5014;SDS011;2526;51.060;4.228;2023-05-10T10:49:22;10.82;;;6.07;;
5014;SDS011;2526;51.060;4.228;2023-05-10T10:54:32;10.55;;;6.65;;
5014;SDS011;2526;51.060;4.228;2023-05-10T10:57:13;11.40;;;7.65;;
5014;SDS011;2526;51.060;4.228;2023-05-10T10:59:42;14.43;;;8.25;;
5014;SDS011;2526;51.060;4.228;2023-05-10T11:02:32;11.85;;;6.65;;
5014;SDS011;2526;51.060;4.228;2023-05-10T11:04:57;13.75;;;6.82;;
5014;SDS011;2526;51.060;4.228;2023-05-10T11:07:23;13.82;;;6.15;;
5014;SDS011;2526;51.060;4.228;2023-05-10T11:09:48;12.85;;;8.25;;
5014;SDS011;2526;51.060;4.228;2023-05-10T11:12:14;9.38;;;6.60;;
5014;SDS011;2526;51.060;4.228;2023-05-10T11:14:39;9.68;;;6.13;;
5014;SDS011;2526;51.060;4.228;2023-05-10T11:17:26;13.95;;;7.15;;
5014;SDS011;2526;51.060;4.228;2023-05-10T11:20:02;10.73;;;6.90;;
5014;SDS011;2526;51.060;4.228;2023-05-10T11:22:28;12.07;;;6.82;;
5014;SDS011;2526;51.060;4.228;2023-05-10T11:24:57;12.93;;;7.00;;
5014;SDS011;2526;51.060;4.228;2023-05-10T11:27:26;10.52;;;5.15;;
5014;SDS011;2526;51.060;4.228;2023-05-10T11:29:51;12.57;;;6.13;;
5014;SDS011;2526;51.060;4.228;2023-05-10T11:32:17;8.10;;;5.25;;
5014;SDS011;2526;51.060;4.228;2023-05-10T11:34:42;23.17;;;7.97;;
5014;SDS011;2526;51.060;4.228;2023-05-10T11:37:12;16.38;;;7.28;;
5014;SDS011;2526;51.060;4.228;2023-05-10T11:39:38;11.82;;;5.32;;
5014;SDS011;2526;51.060;4.228;2023-05-10T11:42:03;18.20;;;6.88;;
5014;SDS011;2526;51.060;4.228;2023-05-10T11:44:32;9.40;;;5.85;;
5014;SDS011;2526;51.060;4.228;2023-05-10T11:46:58;11.70;;;8.40;;
5014;SDS011;2526;51.060;4.228;2023-05-10T11:49:24;11.45;;;7.53;;
5014;SDS011;2526;51.060;4.228;2023-05-10T11:51:51;11.77;;;7.47;;
5014;SDS011;2526;51.060;4.228;2023-05-10T11:54:16;21.00;;;7.70;;
5014;SDS011;2526;51.060;4.228;2023-05-10T11:56:42;14.40;;;7.43;;
5014;SDS011;2526;51.060;4.228;2023-05-10T11:59:07;10.77;;;7.32;;
5014;SDS011;2526;51.060;4.228;2023-05-10T12:01:33;13.52;;;7.35;;
5014;SDS011;2526;51.060;4.228;2023-05-10T12:03:58;13.85;;;8.75;;
5014;SDS011;2526;51.060;4.228;2023-05-10T12:06:28;12.35;;;6.47;;
5014;SDS011;2526;51.060;4.228;2023-05-10T12:08:56;9.18;;;7.03;;
5014;SDS011;2526;51.060;4.228;2023-05-10T12:11:24;17.38;;;8.32;;
5014;SDS011;2526;51.060;4.228;2023-05-10T12:13:50;13.52;;;7.28;;
5014;SDS011;2526;51.060;4.228;2023-05-10T12:16:19;11.63;;;6.88;;
5014;SDS011;2526;51.060;4.228;2023-05-10T12:18:49;10.13;;;6.15;;
5014;SDS011;2526;51.060;4.228;2023-05-10T12:21:14;14.48;;;7.20;;
5014;SDS011;2526;51.060;4.228;2023-05-10T12:23:40;13.05;;;7.40;;
5014;SDS011;2526;51.060;4.228;2023-05-10T12:26:06;15.95;;;6.78;;
5014;SDS011;2526;51.060;4.228;2023-05-10T12:28:32;11.73;;;8.02;;
5014;SDS011;2526;51.060;4.228;2023-05-10T12:30:58;10.95;;;6.45;;
5014;SDS011;2526;51.060;4.228;2023-05-10T12:33:24;12.77;;;7.82;;
5014;SDS011;2526;51.060;4.228;2023-05-10T12:35:50;22.55;;;7.35;;
5014;SDS011;2526;51.060;4.228;2023-05-10T12:38:49;18.27;;;8.02;;
5014;SDS011;2526;51.060;4.228;2023-05-10T12:41:11;11.27;;;6.55;;
5014;SDS011;2526;51.060;4.228;2023-05-10T12:43:38;12.30;;;7.53;;
5014;SDS011;2526;51.060;4.228;2023-05-10T12:46:07;10.88;;;6.95;;
5014;SDS011;2526;51.060;4.228;2023-05-10T12:48:33;12.27;;;6.78;;
5014;SDS011;2526;51.060;4.228;2023-05-10T12:51:00;22.90;;;6.25;;
5014;SDS011;2526;51.060;4.228;2023-05-10T12:53:25;9.27;;;5.75;;
5014;SDS011;2526;51.060;4.228;2023-05-10T12:55:51;8.52;;;6.43;;
5014;SDS011;2526;51.060;4.228;2023-05-10T12:58:16;9.52;;;6.25;;
5014;SDS011;2526;51.060;4.228;2023-05-10T13:00:41;12.27;;;6.47;;
5014;SDS011;2526;51.060;4.228;2023-05-10T13:03:08;13.23;;;8.10;;
5014;SDS011;2526;51.060;4.228;2023-05-10T13:05:35;12.15;;;7.47;;
5014;SDS011;2526;51.060;4.228;2023-05-10T13:08:00;16.58;;;7.43;;
5014;SDS011;2526;51.060;4.228;2023-05-10T13:10:26;12.93;;;7.72;;
5014;SDS011;2526;51.060;4.228;2023-05-10T13:12:52;8.00;;;6.28;;
5014;SDS011;2526;51.060;4.228;2023-05-10T13:15:17;11.65;;;6.90;;
5014;SDS011;2526;51.060;4.228;2023-05-10T13:17:43;12.10;;;7.18;;
5014;SDS011;2526;51.060;4.228;2023-05-10T13:20:10;14.55;;;7.95;;
5014;SDS011;2526;51.060;4.228;2023-05-10T13:22:36;12.82;;;6.70;;
5014;SDS011;2526;51.060;4.228;2023-05-10T13:25:01;15.07;;;8.38;;
5014;SDS011;2526;51.060;4.228;2023-05-10T13:27:27;13.13;;;8.98;;
5014;SDS011;2526;51.060;4.228;2023-05-10T13:29:52;12.80;;;8.00;;
5014;SDS011;2526;51.060;4.228;2023-05-10T13:32:18;14.02;;;8.52;;
5014;SDS011;2526;51.060;4.228;2023-05-10T13:34:43;12.40;;;8.30;;
5014;SDS011;2526;51.060;4.228;2023-05-10T13:37:09;10.82;;;6.00;;
5014;SDS011;2526;51.060;4.228;2023-05-10T13:39:34;13.93;;;8.43;;
5014;SDS011;2526;51.060;4.228;2023-05-10T13:42:02;14.25;;;8.93;;
5014;SDS011;2526;51.060;4.228;2023-05-10T13:44:28;15.43;;;9.15;;
5014;SDS011;2526;51.060;4.228;2023-05-10T13:46:53;15.85;;;8.82;;
5014;SDS011;2526;51.060;4.228;2023-05-10T13:49:19;16.08;;;8.48;;
5014;SDS011;2526;51.060;4.228;2023-05-10T13:51:44;12.38;;;9.07;;
5014;SDS011;2526;51.060;4.228;2023-05-10T13:54:10;18.00;;;9.60;;
5014;SDS011;2526;51.060;4.228;2023-05-10T13:56:35;14.55;;;8.57;;
5014;SDS011;2526;51.060;4.228;2023-05-10T13:59:01;15.20;;;8.73;;
5014;SDS011;2526;51.060;4.228;2023-05-10T14:01:27;19.55;;;11.20;;
5014;SDS011;2526;51.060;4.228;2023-05-10T14:03:52;16.45;;;9.40;;
5014;SDS011;2526;51.060;4.228;2023-05-10T14:06:18;13.25;;;7.85;;
5014;SDS011;2526;51.060;4.228;2023-05-10T14:08:43;20.02;;;10.48;;
5014;SDS011;2526;51.060;4.228;2023-05-10T14:11:09;14.55;;;10.75;;
5014;SDS011;2526;51.060;4.228;2023-05-10T14:13:34;15.15;;;10.25;;
5014;SDS011;2526;51.060;4.228;2023-05-10T14:16:00;15.68;;;9.05;;
5014;SDS011;2526;51.060;4.228;2023-05-10T14:18:26;14.70;;;8.68;;
5014;SDS011;2526;51.060;4.228;2023-05-10T14:20:51;12.27;;;9.50;;
5014;SDS011;2526;51.060;4.228;2023-05-10T14:23:17;25.27;;;10.15;;
5014;SDS011;2526;51.060;4.228;2023-05-10T14:25:44;22.55;;;9.25;;
5014;SDS011;2526;51.060;4.228;2023-05-10T14:28:10;20.17;;;11.07;;
5014;SDS011;2526;51.060;4.228;2023-05-10T14:30:36;10.30;;;4.22;;
5014;SDS011;2526;51.060;4.228;2023-05-10T14:33:01;4.70;;;2.58;;
5014;SDS011;2526;51.060;4.228;2023-05-10T14:35:27;5.93;;;3.05;;
5014;SDS011;2526;51.060;4.228;2023-05-10T14:37:53;4.95;;;2.40;;
5014;SDS011;2526;51.060;4.228;2023-05-10T14:40:18;6.75;;;2.80;;
5014;SDS011;2526;51.060;4.228;2023-05-10T14:42:44;2.50;;;1.38;;
5014;SDS011;2526;51.060;4.228;2023-05-10T14:45:10;3.22;;;2.05;;
5014;SDS011;2526;51.060;4.228;2023-05-10T14:47:36;6.60;;;2.60;;
5014;SDS011;2526;51.060;4.228;2023-05-10T14:50:01;6.03;;;3.05;;
5014;SDS011;2526;51.060;4.228;2023-05-10T14:52:28;14.27;;;3.20;;
5014;SDS011;2526;51.060;4.228;2023-05-10T14:54:54;11.45;;;4.95;;
5014;SDS011;2526;51.060;4.228;2023-05-10T14:57:19;10.48;;;4.90;;
5014;SDS011;2526;51.060;4.228;2023-05-10T14:59:45;12.50;;;5.22;;
5014;SDS011;2526;51.060;4.228;2023-05-10T15:02:11;8.90;;;5.60;;
5014;SDS011;2526;51.060;4.228;2023-05-10T15:04:36;11.88;;;6.32;;
5014;SDS011;2526;51.060;4.228;2023-05-10T15:07:02;6.95;;;5.10;;
5014;SDS011;2526;51.060;4.228;2023-05-10T15:09:27;8.20;;;5.53;;
5014;SDS011;2526;51.060;4.228;2023-05-10T15:11:53;17.13;;;6.60;;
5014;SDS011;2526;51.060;4.228;2023-05-10T15:14:19;10.48;;;5.20;;
5014;SDS011;2526;51.060;4.228;2023-05-10T15:16:44;14.75;;;7.82;;
5014;SDS011;2526;51.060;4.228;2023-05-10T15:19:10;11.65;;;7.75;;